Time,TemperatureF,DewpointF,PressureIn,WindDirection,WindDirectionDegrees,WindSpeedMPH,WindSpeedGustMPH,Humidity,HourlyPrecipIn,Conditions,Clouds,dailyrainin,SoftwareType,DateUTC
2013-05-22 00:02:00,55.0,53.0,29.71,East,92,0.0,0.0,92,0.00,,,0.00,,2013-05-22 05:02:00,
2013-05-22 00:12:00,55.0,53.0,29.72,East,92,0.0,1.0,92,0.00,,,0.00,,2013-05-22 05:12:00,
2013-05-22 00:21:00,55.0,53.0,29.72,East,92,0.0,1.0,92,0.00,,,0.00,,2013-05-22 05:21:00,
2013-05-22 00:32:00,55.0,53.0,29.71,East,92,0.0,0.0,92,0.00,,,0.00,,2013-05-22 05:32:00,
2013-05-22 00:42:00,56.0,54.0,29.72,East,92,0.0,1.0,92,0.00,,,0.00,,2013-05-22 05:42:00,
2013-05-22 00:52:00,56.0,54.0,29.72,East,92,0.0,1.0,92,0.00,,,0.00,,2013-05-22 05:52:00,
2013-05-22 01:01:00,56.0,54.0,29.72,East,92,0.0,0.0,92,0.00,,,0.00,,2013-05-22 06:01:00,
2013-05-22 01:11:00,56.0,54.0,29.72,East,92,0.0,0.0,92,0.00,,,0.00,,2013-05-22 06:11:00,
2013-05-22 01:21:00,56.0,54.0,29.72,East,92,0.0,0.0,92,0.00,,,0.00,,2013-05-22 06:21:00,
2013-05-22 01:31:00,56.0,54.0,29.71,East,92,0.0,0.0,92,0.00,,,0.00,,2013-05-22 06:31:00,
2013-05-22 01:42:00,56.0,54.0,29.71,East,92,0.0,0.0,92,0.00,,,0.00,,2013-05-22 06:42:00,
2013-05-22 01:52:00,56.0,54.0,29.71,East,92,0.0,0.0,92,0.00,,,0.00,,2013-05-22 06:52:00,
2013-05-22 02:01:00,56.0,54.0,29.71,East,92,0.0,0.0,93,0.00,,,0.00,,2013-05-22 07:01:00,
2013-05-22 02:11:00,56.0,54.0,29.71,East,92,0.0,0.0,93,0.00,,,0.00,,2013-05-22 07:11:00,
2013-05-22 02:21:00,56.0,54.0,29.71,East,92,0.0,0.0,93,0.00,,,0.00,,2013-05-22 07:21:00,
2013-05-22 02:31:00,56.0,54.0,29.71,East,92,0.0,0.0,94,0.00,,,0.00,,2013-05-22 07:31:00,
2013-05-22 02:42:00,56.0,54.0,29.71,East,92,0.0,0.0,94,0.00,,,0.00,,2013-05-22 07:42:00,
2013-05-22 02:53:00,56.0,54.0,29.71,WSW,257,1.0,3.0,94,0.00,,,0.00,,2013-05-22 07:53:00,
2013-05-22 03:02:00,55.0,54.0,29.72,WNW,285,1.0,5.0,95,0.00,,,0.00,,2013-05-22 08:02:00,
2013-05-22 03:11:00,55.0,54.0,29.72,WNW,285,1.0,5.0,95,0.00,,,0.00,,2013-05-22 08:11:00,
2013-05-22 03:22:00,55.0,54.0,29.72,NW,305,0.0,4.0,96,0.00,,,0.00,,2013-05-22 08:22:00,
2013-05-22 03:31:00,55.0,54.0,29.72,WNW,299,0.0,5.0,97,0.00,,,0.00,,2013-05-22 08:31:00,
2013-05-22 03:42:00,55.0,54.0,29.72,WNW,299,0.0,5.0,97,0.00,,,0.00,,2013-05-22 08:42:00,
2013-05-22 03:52:00,55.0,54.0,29.72,WNW,294,1.0,4.0,97,0.00,,,0.00,,2013-05-22 08:52:00,
2013-05-22 04:01:00,55.0,54.0,29.72,NNW,348,3.0,5.0,97,0.00,,,0.00,,2013-05-22 09:01:00,
2013-05-22 04:11:00,55.0,54.0,29.72,NNW,348,3.0,5.0,97,0.00,,,0.00,,2013-05-22 09:11:00,
2013-05-22 04:22:00,54.0,53.0,29.72,NNW,347,2.0,4.0,97,0.00,,,0.00,,2013-05-22 09:22:00,
2013-05-22 04:32:00,54.0,53.0,29.72,North,360,2.0,4.0,97,0.00,,,0.00,,2013-05-22 09:32:00,
2013-05-22 04:42:00,54.0,53.0,29.72,North,360,2.0,4.0,97,0.00,,,0.00,,2013-05-22 09:42:00,
2013-05-22 04:53:00,54.0,53.0,29.72,NNW,342,1.0,8.0,97,0.00,,,0.00,,2013-05-22 09:53:00,
2013-05-22 05:03:00,54.0,53.0,29.72,NW,314,2.0,5.0,97,0.00,,,0.00,,2013-05-22 10:03:00,
2013-05-22 05:12:00,54.0,53.0,29.72,NW,314,2.0,5.0,97,0.00,,,0.00,,2013-05-22 10:12:00,
2013-05-22 05:22:00,53.0,52.0,29.72,North,360,2.0,6.0,97,0.01,,,0.01,,2013-05-22 10:22:00,
2013-05-22 05:33:00,53.0,52.0,29.72,North,355,0.0,4.0,98,0.01,,,0.01,,2013-05-22 10:33:00,
2013-05-22 05:42:00,53.0,52.0,29.72,North,355,0.0,4.0,98,0.01,,,0.01,,2013-05-22 10:42:00,
2013-05-22 05:52:00,53.0,52.0,29.72,North,5,2.0,5.0,98,0.01,,,0.01,,2013-05-22 10:52:00,
2013-05-22 06:02:00,52.0,51.0,29.72,NW,322,1.0,5.0,98,0.02,,,0.02,,2013-05-22 11:02:00,
2013-05-22 06:11:00,52.0,51.0,29.72,NW,322,1.0,5.0,98,0.02,,,0.02,,2013-05-22 11:11:00,
2013-05-22 06:21:00,52.0,51.0,29.72,NW,325,1.0,5.0,98,0.01,,,0.02,,2013-05-22 11:21:00,
2013-05-22 06:32:00,52.0,51.0,29.73,North,355,2.0,7.0,98,0.01,,,0.02,,2013-05-22 11:32:00,
2013-05-22 06:42:00,52.0,51.0,29.73,North,355,2.0,7.0,98,0.01,,,0.02,,2013-05-22 11:42:00,
2013-05-22 06:52:00,51.0,50.0,29.73,West,281,2.0,6.0,98,0.02,,,0.03,,2013-05-22 11:52:00,
2013-05-22 07:02:00,51.0,50.0,29.73,WNW,298,1.0,5.0,98,0.01,,,0.03,,2013-05-22 12:02:00,
2013-05-22 07:12:00,51.0,50.0,29.73,WNW,298,1.0,5.0,98,0.01,,,0.03,,2013-05-22 12:12:00,
2013-05-22 07:22:00,51.0,50.0,29.73,WNW,282,2.0,6.0,98,0.01,,,0.03,,2013-05-22 12:22:00,
2013-05-22 07:32:00,51.0,50.0,29.73,West,264,2.0,6.0,98,0.01,,,0.03,,2013-05-22 12:32:00,
2013-05-22 07:42:00,51.0,50.0,29.73,West,264,2.0,6.0,98,0.01,,,0.03,,2013-05-22 12:42:00,
2013-05-22 07:52:00,50.0,49.0,29.73,WSW,253,1.0,4.0,98,0.00,,,0.03,,2013-05-22 12:52:00,
2013-05-22 08:01:00,50.0,49.0,29.74,WSW,237,1.0,6.0,98,0.00,,,0.03,,2013-05-22 13:01:00,
2013-05-22 08:11:00,50.0,49.0,29.74,WSW,237,1.0,6.0,98,0.00,,,0.03,,2013-05-22 13:11:00,
2013-05-22 08:22:00,50.0,49.0,29.74,West,279,1.0,5.0,98,0.00,,,0.03,,2013-05-22 13:22:00,
2013-05-22 08:32:00,50.0,49.0,29.74,NW,307,2.0,5.0,98,0.00,,,0.03,,2013-05-22 13:32:00,
2013-05-22 08:41:00,50.0,49.0,29.74,NW,307,2.0,5.0,98,0.00,,,0.03,,2013-05-22 13:41:00,
2013-05-22 08:52:00,50.0,49.0,29.75,West,262,2.0,7.0,98,0.00,,,0.03,,2013-05-22 13:52:00,
2013-05-22 09:02:00,49.0,48.0,29.75,WNW,293,2.0,8.0,98,0.00,,,0.03,,2013-05-22 14:02:00,
2013-05-22 09:11:00,49.0,48.0,29.75,WNW,293,2.0,8.0,98,0.00,,,0.03,,2013-05-22 14:11:00,
2013-05-22 09:21:00,49.0,48.0,29.76,WSW,247,2.0,10.0,98,0.01,,,0.04,,2013-05-22 14:21:00,
2013-05-22 09:32:00,49.0,48.0,29.76,West,280,3.0,6.0,98,0.01,,,0.04,,2013-05-22 14:32:00,
2013-05-22 09:42:00,49.0,48.0,29.76,West,280,3.0,6.0,98,0.01,,,0.04,,2013-05-22 14:42:00,
2013-05-22 09:52:00,49.0,48.0,29.77,SW,232,2.0,8.0,98,0.02,,,0.05,,2013-05-22 14:52:00,
2013-05-22 10:01:00,49.0,48.0,29.76,West,279,3.0,6.0,98,0.02,,,0.05,,2013-05-22 15:01:00,
2013-05-22 10:11:00,49.0,48.0,29.76,West,279,3.0,6.0,98,0.02,,,0.05,,2013-05-22 15:11:00,
2013-05-22 10:22:00,49.0,48.0,29.76,WSW,254,3.0,6.0,98,0.02,,,0.06,,2013-05-22 15:22:00,
2013-05-22 10:32:00,49.0,48.0,29.77,WSW,254,2.0,6.0,98,0.02,,,0.06,,2013-05-22 15:32:00,
2013-05-22 10:42:00,49.0,48.0,29.77,WSW,254,2.0,6.0,98,0.02,,,0.06,,2013-05-22 15:42:00,
2013-05-22 10:53:00,49.0,48.0,29.77,WSW,254,2.0,6.0,98,0.02,,,0.06,,2013-05-22 15:53:00,
2013-05-22 11:03:00,49.0,48.0,29.78,West,274,1.0,5.0,98,0.02,,,0.07,,2013-05-22 16:03:00,
2013-05-22 11:12:00,49.0,48.0,29.78,West,274,1.0,5.0,98,0.02,,,0.07,,2013-05-22 16:12:00,
2013-05-22 11:23:00,49.0,48.0,29.78,WSW,247,4.0,8.0,98,0.02,,,0.08,,2013-05-22 16:23:00,
2013-05-22 11:32:00,49.0,48.0,29.78,WSW,252,3.0,5.0,98,0.03,,,0.09,,2013-05-22 16:32:00,
2013-05-22 11:42:00,49.0,48.0,29.78,WSW,252,3.0,5.0,98,0.03,,,0.09,,2013-05-22 16:42:00,
2013-05-22 11:52:00,49.0,48.0,29.79,WSW,252,3.0,7.0,98,0.04,,,0.10,,2013-05-22 16:52:00,
2013-05-22 12:02:00,49.0,48.0,29.79,WNW,290,2.0,5.0,98,0.04,,,0.11,,2013-05-22 17:02:00,
2013-05-22 12:11:00,49.0,48.0,29.79,WNW,290,2.0,5.0,98,0.04,,,0.11,,2013-05-22 17:11:00,
2013-05-22 12:23:00,49.0,48.0,29.80,WNW,290,2.0,6.0,98,0.04,,,0.12,,2013-05-22 17:23:00,
2013-05-22 12:33:00,49.0,48.0,29.80,West,280,3.0,9.0,98,0.04,,,0.13,,2013-05-22 17:33:00,
2013-05-22 12:42:00,49.0,48.0,29.80,West,280,3.0,9.0,98,0.04,,,0.13,,2013-05-22 17:42:00,
2013-05-22 12:53:00,50.0,49.0,29.80,NW,321,2.0,5.0,98,0.04,,,0.14,,2013-05-22 17:53:00,
2013-05-22 13:02:00,50.0,49.0,29.80,WNW,296,2.0,9.0,98,0.03,,,0.14,,2013-05-22 18:02:00,
2013-05-22 13:14:00,50.0,49.0,29.80,WNW,296,2.0,9.0,98,0.03,,,0.14,,2013-05-22 18:14:00,
2013-05-22 13:22:00,50.0,49.0,29.80,WNW,300,1.0,6.0,98,0.02,,,0.14,,2013-05-22 18:22:00,
2013-05-22 13:33:00,50.0,49.0,29.80,NW,319,3.0,8.0,97,0.02,,,0.15,,2013-05-22 18:33:00,
2013-05-22 13:42:00,50.0,49.0,29.80,NW,319,3.0,8.0,97,0.02,,,0.15,,2013-05-22 18:42:00,
2013-05-22 13:52:00,51.0,50.0,29.81,WSW,254,2.0,8.0,97,0.01,,,0.15,,2013-05-22 18:52:00,
2013-05-22 14:02:00,51.0,50.0,29.81,WNW,292,2.0,6.0,97,0.01,,,0.15,,2013-05-22 19:02:00,
2013-05-22 14:11:00,51.0,50.0,29.81,WNW,292,2.0,6.0,97,0.01,,,0.15,,2013-05-22 19:11:00,
2013-05-22 14:21:00,51.0,50.0,29.81,West,271,2.0,4.0,97,0.01,,,0.15,,2013-05-22 19:21:00,
2013-05-22 14:32:00,51.0,50.0,29.82,WNW,300,2.0,5.0,97,0.00,,,0.15,,2013-05-22 19:32:00,
2013-05-22 14:42:00,51.0,50.0,29.82,NNW,333,2.0,6.0,97,0.01,,,0.16,,2013-05-22 19:42:00,
2013-05-22 14:52:00,51.0,50.0,29.82,NNW,333,2.0,6.0,97,0.01,,,0.16,,2013-05-22 19:52:00,
2013-05-22 15:02:00,51.0,50.0,29.82,WNW,298,2.0,5.0,97,0.01,,,0.16,,2013-05-22 20:02:00,
2013-05-22 15:11:00,51.0,50.0,29.83,WNW,286,2.0,6.0,97,0.01,,,0.16,,2013-05-22 20:11:00,
2013-05-22 15:21:00,51.0,50.0,29.83,WNW,286,2.0,6.0,97,0.01,,,0.16,,2013-05-22 20:21:00,
2013-05-22 15:32:00,52.0,51.0,29.83,West,273,2.0,6.0,97,0.01,,,0.16,,2013-05-22 20:32:00,
2013-05-22 15:42:00,52.0,51.0,29.83,NW,307,1.0,5.0,97,0.00,,,0.16,,2013-05-22 20:42:00,
2013-05-22 15:52:00,52.0,51.0,29.83,NW,307,1.0,5.0,97,0.00,,,0.16,,2013-05-22 20:52:00,
2013-05-22 16:01:00,52.0,51.0,29.83,West,273,3.0,9.0,96,0.00,,,0.16,,2013-05-22 21:01:00,
2013-05-22 16:11:00,52.0,51.0,29.83,West,273,3.0,9.0,96,0.00,,,0.16,,2013-05-22 21:11:00,
2013-05-22 16:21:00,52.0,51.0,29.84,WNW,292,2.0,7.0,96,0.01,,,0.17,,2013-05-22 21:21:00,
2013-05-22 16:32:00,52.0,51.0,29.84,NW,321,1.0,4.0,97,0.02,,,0.18,,2013-05-22 21:32:00,
2013-05-22 16:42:00,52.0,51.0,29.84,NW,321,1.0,4.0,97,0.02,,,0.18,,2013-05-22 21:42:00,
2013-05-22 16:53:00,52.0,51.0,29.84,WNW,286,2.0,8.0,97,0.03,,,0.19,,2013-05-22 21:53:00,
2013-05-22 17:03:00,52.0,51.0,29.85,WNW,297,1.0,7.0,97,0.03,,,0.19,,2013-05-22 22:03:00,
2013-05-22 17:12:00,52.0,51.0,29.85,WNW,297,1.0,7.0,97,0.03,,,0.19,,2013-05-22 22:12:00,
2013-05-22 17:22:00,52.0,51.0,29.85,West,281,1.0,6.0,97,0.03,,,0.20,,2013-05-22 22:22:00,
2013-05-22 17:33:00,52.0,51.0,29.85,NW,311,1.0,10.0,97,0.03,,,0.21,,2013-05-22 22:33:00,
2013-05-22 17:42:00,52.0,51.0,29.86,NNW,348,2.0,6.0,98,0.02,,,0.21,,2013-05-22 22:42:00,
2013-05-22 17:52:00,52.0,51.0,29.86,NNW,348,2.0,6.0,98,0.02,,,0.21,,2013-05-22 22:52:00,
2013-05-22 18:02:00,52.0,51.0,29.86,WNW,289,1.0,6.0,98,0.03,,,0.22,,2013-05-22 23:02:00,
2013-05-22 18:12:00,52.0,51.0,29.86,WNW,289,1.0,6.0,98,0.03,,,0.22,,2013-05-22 23:12:00,
2013-05-22 18:21:00,52.0,51.0,29.86,North,350,2.0,6.0,98,0.02,,,0.22,,2013-05-22 23:21:00,
2013-05-22 18:32:00,52.0,51.0,29.87,NW,313,2.0,8.0,97,0.01,,,0.22,,2013-05-22 23:32:00,
2013-05-22 18:42:00,52.0,51.0,29.87,NW,313,2.0,8.0,97,0.01,,,0.22,,2013-05-22 23:42:00,
2013-05-22 18:52:00,52.0,51.0,29.87,WNW,288,2.0,10.0,97,0.01,,,0.22,,2013-05-22 23:52:00,
2013-05-22 19:01:00,52.0,51.0,29.88,North,355,3.0,9.0,96,0.00,,,0.22,,2013-05-23 00:01:00,
2013-05-22 19:11:00,52.0,51.0,29.88,North,355,3.0,9.0,96,0.00,,,0.22,,2013-05-23 00:11:00,
2013-05-22 19:22:00,52.0,51.0,29.88,West,272,2.0,8.0,97,0.00,,,0.22,,2013-05-23 00:22:00,
2013-05-22 19:31:00,52.0,51.0,29.89,NNW,348,2.0,7.0,97,0.00,,,0.22,,2013-05-23 00:31:00,
2013-05-22 19:42:00,52.0,51.0,29.89,NNW,348,2.0,7.0,97,0.00,,,0.22,,2013-05-23 00:42:00,
2013-05-22 19:52:00,52.0,51.0,29.90,West,271,2.0,6.0,96,0.00,,,0.22,,2013-05-23 00:52:00,
2013-05-22 20:01:00,52.0,51.0,29.90,WNW,303,3.0,12.0,96,0.00,,,0.22,,2013-05-23 01:01:00,
2013-05-22 20:11:00,52.0,51.0,29.90,WNW,303,3.0,12.0,96,0.00,,,0.22,,2013-05-23 01:11:00,
2013-05-22 20:21:00,52.0,51.0,29.91,NW,306,1.0,8.0,96,0.00,,,0.22,,2013-05-23 01:21:00,
2013-05-22 20:32:00,52.0,51.0,29.91,WNW,302,2.0,9.0,96,0.00,,,0.22,,2013-05-23 01:32:00,
2013-05-22 20:42:00,52.0,51.0,29.92,NW,323,3.0,9.0,96,0.00,,,0.22,,2013-05-23 01:42:00,
2013-05-22 20:52:00,52.0,51.0,29.92,NW,323,3.0,9.0,96,0.00,,,0.22,,2013-05-23 01:52:00,
2013-05-22 21:01:00,51.0,50.0,29.93,NW,306,2.0,7.0,95,0.00,,,0.22,,2013-05-23 02:01:00,
2013-05-22 21:11:00,51.0,50.0,29.93,NW,306,2.0,7.0,95,0.00,,,0.22,,2013-05-23 02:11:00,
2013-05-22 21:21:00,51.0,50.0,29.93,North,355,1.0,7.0,95,0.00,,,0.22,,2013-05-23 02:21:00,
2013-05-22 21:31:00,51.0,50.0,29.95,NNE,19,3.0,8.0,96,0.00,,,0.22,,2013-05-23 02:31:00,
2013-05-22 21:42:00,51.0,50.0,29.95,NNE,19,3.0,8.0,96,0.00,,,0.22,,2013-05-23 02:42:00,
2013-05-22 21:52:00,51.0,50.0,29.95,NNE,19,3.0,8.0,96,0.00,,,0.22,,2013-05-23 02:52:00,
2013-05-22 22:01:00,51.0,50.0,29.96,West,277,2.0,7.0,95,0.00,,,0.22,,2013-05-23 03:01:00,
2013-05-22 22:11:00,51.0,50.0,29.96,West,277,2.0,7.0,95,0.00,,,0.22,,2013-05-23 03:11:00,
2013-05-22 22:21:00,51.0,49.0,29.96,NW,310,4.0,10.0,94,0.00,,,0.22,,2013-05-23 03:21:00,
2013-05-22 22:33:00,51.0,50.0,29.97,WNW,295,2.0,10.0,95,0.00,,,0.22,,2013-05-23 03:33:00,
2013-05-22 22:43:00,51.0,50.0,29.97,WNW,295,2.0,10.0,95,0.00,,,0.22,,2013-05-23 03:43:00,
2013-05-22 22:53:00,51.0,50.0,29.98,NNW,335,2.0,6.0,95,0.00,,,0.22,,2013-05-23 03:53:00,
2013-05-22 23:03:00,51.0,50.0,29.98,WNW,300,2.0,7.0,95,0.00,,,0.22,,2013-05-23 04:03:00,
2013-05-22 23:12:00,51.0,50.0,29.98,WNW,300,2.0,7.0,95,0.00,,,0.22,,2013-05-23 04:12:00,
2013-05-22 23:22:00,51.0,50.0,29.98,NW,323,2.0,7.0,95,0.00,,,0.22,,2013-05-23 04:22:00,
2013-05-22 23:33:00,51.0,50.0,30.00,WNW,282,2.0,6.0,95,0.00,,,0.22,,2013-05-23 04:33:00,
2013-05-22 23:42:00,51.0,50.0,30.00,WNW,282,2.0,6.0,95,0.00,,,0.22,,2013-05-23 04:42:00,
2013-05-22 23:52:00,50.0,49.0,30.00,NW,317,4.0,7.0,95,0.00,,,0.22,,2013-05-23 04:52:00,